createdAt,value
2017-09-28T00:02:28.105Z,25.63
2017-09-28T00:04:56.357Z,25.03
2017-09-28T00:07:24.610Z,25.60
2017-09-28T00:09:52.881Z,23.40
2017-09-28T00:12:21.137Z,24.17
2017-09-28T00:14:50.154Z,24.87
2017-09-28T00:17:18.542Z,25.03
2017-09-28T00:19:46.801Z,25.23
2017-09-28T00:22:15.053Z,24.60
2017-09-28T00:24:43.342Z,24.30
2017-09-28T00:27:12.354Z,21.13
2017-09-28T00:29:40.605Z,22.73
2017-09-28T00:32:08.885Z,22.60
2017-09-28T00:34:37.895Z,24.67
2017-09-28T00:37:06.151Z,24.03
2017-09-28T00:39:35.812Z,22.23
2017-09-28T00:42:04.058Z,22.60
2017-09-28T00:44:32.314Z,21.77
2017-09-28T00:47:01.510Z,24.43
2017-09-28T00:49:30.526Z,22.20
2017-09-28T00:51:58.790Z,21.17
2017-09-28T00:54:27.057Z,23.30
2017-09-28T00:56:55.309Z,22.40
2017-09-28T00:59:23.565Z,21.53
2017-09-28T01:01:51.961Z,21.57
2017-09-28T01:04:20.225Z,22.73
2017-09-28T01:06:48.483Z,22.90
2017-09-28T01:09:16.761Z,22.97
2017-09-28T01:11:45.033Z,21.53
2017-09-28T01:14:13.275Z,20.97
2017-09-28T01:16:42.314Z,22.70
2017-09-28T01:19:10.669Z,24.30
2017-09-28T01:21:38.918Z,22.27
2017-09-28T01:24:08.299Z,22.27
2017-09-28T01:26:36.545Z,24.50
2017-09-28T01:29:04.790Z,24.97
2017-09-28T01:31:33.061Z,22.27
2017-09-28T01:34:01.311Z,23.23
2017-09-28T01:36:29.564Z,21.20
2017-09-28T01:38:57.840Z,22.93
2017-09-28T01:41:26.090Z,22.90
2017-09-28T01:43:54.338Z,25.07
2017-09-28T01:46:22.785Z,21.27
2017-09-28T01:48:51.036Z,23.53
2017-09-28T01:51:19.284Z,23.17
2017-09-28T01:53:47.557Z,20.80
2017-09-28T01:56:15.801Z,21.10
2017-09-28T01:58:44.050Z,20.53
2017-09-28T02:01:12.333Z,19.33
2017-09-28T02:03:40.578Z,20.97
2017-09-28T02:06:09.921Z,21.10
2017-09-28T02:08:38.682Z,21.60
2017-09-28T02:11:06.941Z,21.77
2017-09-28T02:13:35.186Z,20.47
2017-09-28T02:16:03.474Z,21.10
2017-09-28T02:18:32.498Z,22.27
2017-09-28T02:21:01.154Z,24.33
2017-09-28T02:23:30.192Z,22.50
2017-09-28T02:25:58.446Z,23.33
2017-09-28T02:28:26.698Z,22.50
2017-09-28T02:30:55.101Z,23.40
2017-09-28T02:33:23.355Z,22.97
2017-09-28T02:35:52.369Z,21.33
2017-09-28T02:38:20.645Z,21.27
2017-09-28T02:40:48.902Z,21.33
2017-09-28T02:43:17.918Z,21.33
2017-09-28T02:45:46.193Z,20.77
2017-09-28T02:48:14.450Z,22.23
2017-09-28T02:50:43.461Z,21.57
2017-09-28T02:53:11.785Z,22.27
2017-09-28T02:55:40.055Z,21.93
2017-09-28T02:58:08.297Z,23.23
2017-09-28T03:00:36.573Z,21.97
2017-09-28T03:03:04.826Z,21.47
2017-09-28T03:05:33.841Z,20.90
2017-09-28T03:08:02.119Z,23.93
2017-09-28T03:10:30.365Z,21.93
2017-09-28T03:12:59.841Z,23.13
2017-09-28T03:15:28.302Z,23.23
2017-09-28T03:17:56.566Z,23.70
2017-09-28T03:20:24.817Z,26.03
2017-09-28T03:22:53.414Z,23.97
2017-09-28T03:25:21.706Z,23.33
2017-09-28T03:27:49.941Z,22.73
2017-09-28T03:30:18.222Z,21.83
2017-09-28T03:32:47.237Z,23.30
2017-09-28T03:35:15.485Z,24.93
2017-09-28T03:37:44.673Z,24.67
2017-09-28T03:40:12.930Z,25.63
2017-09-28T03:42:41.173Z,25.97
2017-09-28T03:45:09.450Z,25.90
2017-09-28T03:47:37.770Z,25.70
2017-09-28T03:50:06.021Z,25.10
2017-09-28T03:52:35.062Z,25.57
2017-09-28T03:55:04.081Z,24.97
2017-09-28T03:57:32.341Z,25.73
2017-09-28T04:00:01.714Z,23.30
2017-09-28T04:02:30.013Z,24.40
2017-09-28T04:04:58.265Z,26.20
2017-09-28T04:07:26.542Z,25.47
2017-09-28T04:09:54.791Z,25.40
2017-09-28T04:12:23.041Z,27.07
2017-09-28T04:14:51.322Z,25.93
2017-09-28T04:17:19.574Z,24.70
2017-09-28T04:19:48.585Z,25.70
2017-09-28T04:22:17.297Z,25.53
2017-09-28T04:24:45.946Z,25.53
2017-09-28T04:27:14.216Z,25.30
2017-09-28T04:29:42.491Z,23.27
2017-09-28T04:32:10.751Z,25.17
2017-09-28T04:34:39.009Z,24.67
2017-09-28T04:37:07.575Z,25.67
2017-09-28T04:39:35.827Z,24.80
2017-09-28T04:42:04.081Z,25.50
2017-09-28T04:44:32.826Z,25.20
2017-09-28T04:47:01.078Z,27.07
2017-09-28T04:49:29.326Z,25.20
2017-09-28T04:51:58.370Z,27.87
2017-09-28T04:54:26.621Z,27.07
2017-09-28T04:56:54.868Z,27.67
2017-09-28T04:59:23.905Z,29.30
2017-09-28T05:01:52.168Z,28.70
2017-09-28T05:04:20.420Z,25.17
2017-09-28T05:06:48.894Z,26.57
2017-09-28T05:09:17.146Z,27.37
2017-09-28T05:11:45.393Z,26.93
2017-09-28T05:14:13.669Z,29.03
2017-09-28T05:16:42.070Z,25.87
2017-09-28T05:19:10.318Z,28.67
2017-09-28T05:21:38.586Z,28.70
2017-09-28T05:24:06.836Z,28.37
2017-09-28T05:26:36.032Z,27.80
2017-09-28T05:29:04.477Z,30.57
2017-09-28T05:31:32.710Z,30.37
2017-09-28T05:34:00.966Z,29.63
2017-09-28T05:36:29.245Z,29.57
2017-09-28T05:38:58.404Z,30.43
2017-09-28T05:41:26.650Z,30.70
2017-09-28T05:43:54.955Z,30.10
2017-09-28T05:46:23.990Z,31.30
2017-09-28T05:48:52.222Z,29.47
2017-09-28T05:51:20.711Z,29.00
2017-09-28T05:53:48.962Z,28.60
2017-09-28T05:56:17.253Z,30.07
2017-09-28T05:58:45.548Z,30.60
2017-09-28T06:01:13.846Z,30.30
2017-09-28T06:03:42.163Z,31.77
2017-09-28T06:06:10.469Z,31.17
2017-09-28T06:08:38.772Z,32.33
2017-09-28T06:11:07.371Z,30.43
2017-09-28T06:13:36.206Z,30.43
2017-09-28T06:16:04.454Z,31.80
2017-09-28T06:18:32.850Z,32.10
2017-09-28T06:21:01.169Z,31.47
2017-09-28T06:23:29.445Z,28.83
2017-09-28T06:25:57.687Z,29.00
2017-09-28T06:28:26.504Z,28.67
2017-09-28T06:30:54.758Z,30.87
2017-09-28T06:33:23.159Z,31.00
2017-09-28T06:35:51.622Z,27.43
2017-09-28T06:38:19.913Z,31.20
2017-09-28T06:40:48.192Z,29.00
2017-09-28T06:43:17.234Z,33.00
2017-09-28T06:45:45.526Z,29.83
2017-09-28T06:48:13.803Z,28.67
2017-09-28T06:50:42.087Z,29.90
2017-09-28T06:53:11.103Z,28.60
2017-09-28T06:55:39.590Z,29.47
2017-09-28T06:58:08.050Z,30.33
2017-09-28T07:00:36.436Z,27.20
2017-09-28T07:03:04.697Z,27.97
2017-09-28T07:05:32.960Z,30.47
2017-09-28T07:08:01.226Z,27.40
2017-09-28T07:10:29.482Z,26.93
2017-09-28T07:12:58.000Z,26.73
2017-09-28T07:15:26.374Z,26.17
2017-09-28T07:17:54.629Z,26.30
2017-09-28T07:20:23.766Z,27.63
2017-09-28T07:22:52.009Z,26.63
2017-09-28T07:25:21.034Z,25.03
2017-09-28T07:27:49.312Z,25.47
2017-09-28T07:30:18.075Z,27.53
2017-09-28T07:32:46.321Z,24.73
2017-09-28T07:35:14.597Z,28.60
2017-09-28T07:37:42.865Z,28.20
2017-09-28T07:40:11.116Z,29.87
2017-09-28T07:42:39.573Z,29.17
2017-09-28T07:45:07.826Z,31.30
2017-09-28T07:47:36.855Z,28.47
2017-09-28T07:50:05.129Z,29.57
2017-09-28T07:52:33.410Z,28.33
2017-09-28T07:55:02.402Z,28.00
2017-09-28T07:57:30.674Z,27.50
2017-09-28T07:59:58.917Z,28.80
2017-09-28T08:02:27.941Z,30.17
2017-09-28T08:04:56.463Z,28.83
2017-09-28T08:07:24.726Z,31.23
2017-09-28T08:09:52.994Z,28.17
2017-09-28T08:12:21.274Z,29.17
2017-09-28T08:14:49.534Z,28.43
2017-09-28T08:17:17.774Z,29.17
2017-09-28T08:19:46.121Z,28.60
2017-09-28T08:22:14.375Z,30.47
2017-09-28T08:24:42.656Z,28.43
2017-09-28T08:27:11.079Z,27.20
2017-09-28T08:29:39.639Z,26.70
2017-09-28T08:32:08.233Z,24.50
2017-09-28T08:34:36.533Z,26.43
2017-09-28T08:37:05.596Z,24.00
2017-09-28T08:39:33.841Z,25.40
2017-09-28T08:42:02.873Z,24.87
2017-09-28T08:44:32.046Z,26.40
2017-09-28T08:47:01.318Z,24.70
2017-09-28T08:49:29.658Z,24.97
2017-09-28T08:51:57.921Z,25.00
2017-09-28T08:54:26.197Z,24.53
2017-09-28T08:56:54.490Z,22.90
2017-09-28T08:59:22.958Z,24.10
2017-09-28T09:01:51.198Z,24.60
2017-09-28T09:04:19.477Z,25.83
2017-09-28T09:06:47.730Z,22.50
2017-09-28T09:09:16.164Z,24.23
2017-09-28T09:11:44.779Z,24.07
2017-09-28T09:14:13.162Z,24.90
2017-09-28T09:16:41.430Z,24.43
2017-09-28T09:19:09.697Z,24.20
2017-09-28T09:21:37.965Z,26.83
2017-09-28T09:24:06.237Z,26.10
2017-09-28T09:26:34.502Z,25.70
2017-09-28T09:29:02.758Z,26.20
2017-09-28T09:31:31.002Z,26.40
2017-09-28T09:34:00.224Z,25.93
2017-09-28T09:36:28.502Z,26.03
2017-09-28T09:38:56.754Z,26.30
2017-09-28T09:41:25.094Z,28.30
2017-09-28T09:43:53.358Z,27.10
2017-09-28T09:46:21.593Z,26.23
2017-09-28T09:48:49.877Z,26.17
2017-09-28T09:51:18.121Z,28.10
2017-09-28T09:53:46.614Z,28.50
2017-09-28T09:56:15.425Z,27.17
2017-09-28T09:58:43.677Z,27.50
2017-09-28T10:01:12.070Z,28.57
2017-09-28T10:03:41.115Z,26.90
2017-09-28T10:06:09.394Z,28.77
2017-09-28T10:08:42.514Z,28.83
2017-09-28T10:11:17.939Z,29.20
2017-09-28T10:13:53.070Z,27.53
2017-09-28T10:16:21.354Z,28.20
2017-09-28T10:18:49.620Z,27.77
2017-09-28T10:21:17.921Z,28.60
2017-09-28T10:23:46.202Z,28.70
2017-09-28T10:26:14.665Z,28.97
2017-09-28T10:28:42.913Z,29.57
2017-09-28T10:31:11.171Z,29.40
2017-09-28T10:33:39.421Z,30.00
2017-09-28T10:36:08.106Z,28.00
2017-09-28T10:38:36.383Z,31.10
2017-09-28T10:41:05.407Z,29.40
2017-09-28T10:43:33.938Z,31.70
2017-09-28T10:46:02.194Z,32.13
2017-09-28T10:48:31.097Z,32.40
2017-09-28T10:50:59.422Z,31.03
2017-09-28T10:53:29.044Z,29.50
2017-09-28T10:55:57.293Z,28.83
2017-09-28T10:58:26.633Z,28.77
2017-09-28T11:00:57.474Z,30.33
2017-09-28T11:03:25.799Z,31.03
2017-09-28T11:05:54.118Z,29.43
2017-09-28T11:08:22.374Z,29.30
2017-09-28T11:10:50.618Z,29.30
2017-09-28T11:13:18.890Z,29.13
2017-09-28T11:15:47.138Z,30.63
2017-09-28T11:18:15.414Z,29.27
2017-09-28T11:20:44.583Z,27.87
2017-09-28T11:23:12.830Z,29.40
2017-09-28T11:25:41.103Z,29.57
2017-09-28T11:28:09.408Z,27.43
2017-09-28T11:30:37.635Z,28.67
2017-09-28T11:33:05.925Z,26.50
2017-09-28T11:35:34.440Z,25.93
2017-09-28T11:38:03.701Z,26.20
2017-09-28T11:40:32.026Z,26.53
2017-09-28T11:43:01.707Z,26.70
2017-09-28T11:45:30.005Z,24.20
2017-09-28T11:48:00.558Z,27.10
2017-09-28T11:50:28.913Z,26.67
2017-09-28T11:52:57.175Z,27.80
2017-09-28T11:55:25.676Z,27.40
2017-09-28T11:57:54.827Z,25.37
2017-09-28T12:00:23.151Z,25.43
2017-09-28T12:02:51.479Z,23.90
2017-09-28T12:05:19.918Z,25.23
2017-09-28T12:07:48.368Z,27.47
2017-09-28T12:10:16.963Z,26.60
2017-09-28T12:12:45.284Z,26.40
2017-09-28T12:15:13.599Z,25.73
2017-09-28T12:17:41.860Z,27.40
2017-09-28T12:20:12.223Z,26.40
2017-09-28T12:22:41.309Z,25.90
2017-09-28T12:25:10.677Z,28.97
2017-09-28T12:27:39.102Z,26.37
2017-09-28T12:30:07.338Z,25.43
2017-09-28T12:32:35.586Z,26.67
2017-09-28T12:35:04.642Z,26.10
2017-09-28T12:37:33.704Z,23.83
2017-09-28T12:40:02.330Z,26.23
2017-09-28T12:42:31.381Z,26.30
2017-09-28T12:44:59.898Z,25.90
2017-09-28T12:47:28.153Z,26.10
2017-09-28T12:49:56.501Z,24.60
2017-09-28T12:52:24.742Z,24.17
2017-09-28T12:54:52.989Z,24.73
2017-09-28T12:57:21.271Z,26.93
2017-09-28T12:59:49.526Z,22.87
2017-09-28T13:02:17.777Z,25.73
2017-09-28T13:04:46.090Z,25.10
2017-09-28T13:07:16.313Z,23.87
2017-09-28T13:09:44.558Z,24.83
2017-09-28T13:12:12.893Z,25.10
2017-09-28T13:14:41.909Z,23.70
2017-09-28T13:17:10.160Z,25.00
2017-09-28T13:19:39.204Z,25.60
2017-09-28T13:22:07.450Z,25.90
2017-09-28T13:24:35.719Z,24.03
2017-09-28T13:27:04.005Z,24.33
2017-09-28T13:29:32.354Z,22.20
2017-09-28T13:32:00.603Z,23.17
2017-09-28T13:34:29.114Z,23.40
2017-09-28T13:36:58.133Z,23.60
2017-09-28T13:39:26.521Z,21.67
2017-09-28T13:41:55.790Z,20.17
2017-09-28T13:44:24.809Z,21.40
2017-09-28T13:46:53.134Z,21.70
2017-09-28T13:49:22.479Z,22.30
2017-09-28T13:51:51.513Z,21.37
2017-09-28T13:54:19.762Z,20.37
2017-09-28T13:56:49.502Z,19.50
2017-09-28T13:59:18.774Z,18.63
2017-09-28T14:01:47.024Z,19.30
2017-09-28T14:04:15.501Z,20.30
2017-09-28T14:06:44.519Z,18.20
2017-09-28T14:09:12.779Z,18.90
2017-09-28T14:11:41.055Z,17.57
2017-09-28T14:14:10.218Z,17.57
2017-09-28T14:16:42.736Z,16.10
2017-09-28T14:19:10.923Z,17.90
2017-09-28T14:21:39.361Z,17.60
2017-09-28T14:24:07.757Z,16.80
2017-09-28T14:26:36.785Z,16.10
2017-09-28T14:29:05.111Z,18.60
2017-09-28T14:31:34.450Z,18.07
2017-09-28T14:34:03.463Z,14.57
2017-09-28T14:36:32.701Z,15.80
2017-09-28T14:39:01.185Z,16.57
2017-09-28T14:41:29.446Z,16.83
2017-09-28T14:43:58.778Z,17.13
2017-09-28T14:46:27.174Z,16.60
2017-09-28T14:48:56.190Z,15.03
2017-09-28T14:51:24.898Z,15.83
2017-09-28T14:53:53.274Z,15.10
2017-09-28T14:56:22.518Z,13.93
2017-09-28T14:58:50.770Z,14.23
2017-09-28T15:01:19.205Z,15.40
2017-09-28T15:03:47.642Z,16.40
2017-09-28T15:06:16.014Z,14.20
2017-09-28T15:08:44.431Z,12.10
2017-09-28T15:11:13.450Z,13.70
2017-09-28T15:13:41.726Z,13.57
2017-09-28T15:16:10.011Z,12.90
2017-09-28T15:18:38.274Z,13.07
2017-09-28T15:21:06.798Z,14.93
2017-09-28T15:23:35.165Z,14.33
2017-09-28T15:26:03.398Z,13.90
2017-09-28T15:28:31.655Z,9.83
2017-09-28T15:31:00.227Z,14.27
2017-09-28T15:33:28.484Z,13.10
2017-09-28T15:35:56.729Z,12.97
2017-09-28T15:38:25.009Z,12.63
2017-09-28T15:40:53.330Z,13.13
2017-09-28T15:43:21.743Z,13.17
2017-09-28T15:45:50.474Z,14.30
2017-09-28T15:48:20.995Z,13.60
2017-09-28T15:50:49.357Z,13.67
2017-09-28T15:53:17.702Z,13.20
2017-09-28T15:55:46.741Z,12.03
2017-09-28T15:58:15.049Z,12.03
2017-09-28T16:00:43.457Z,12.47
2017-09-28T16:03:12.736Z,14.57
2017-09-28T16:05:41.195Z,13.17
2017-09-28T16:08:09.580Z,12.00
2017-09-28T16:10:37.902Z,12.53
2017-09-28T16:13:08.398Z,11.80
2017-09-28T16:15:36.804Z,12.37
2017-09-28T16:18:07.001Z,12.40
2017-09-28T16:20:36.302Z,13.50
2017-09-28T16:23:04.578Z,14.47
2017-09-28T16:25:32.829Z,15.10
2017-09-28T16:28:01.079Z,14.30
2017-09-28T16:30:29.625Z,13.27
2017-09-28T16:32:57.880Z,13.00
2017-09-28T16:35:34.292Z,13.70
2017-09-28T16:38:14.623Z,14.60
2017-09-28T16:40:51.204Z,13.90
2017-09-28T16:43:31.260Z,12.83
2017-09-28T16:46:03.509Z,13.83
2017-09-28T16:48:32.008Z,14.30
2017-09-28T16:51:00.243Z,13.50
2017-09-28T16:53:28.571Z,14.57
2017-09-28T16:55:57.598Z,17.83
2017-09-28T16:58:26.131Z,13.60
2017-09-28T17:00:54.398Z,14.03
2017-09-28T17:03:22.678Z,13.57
2017-09-28T17:05:51.055Z,12.97
2017-09-28T17:08:19.603Z,12.90
2017-09-28T17:10:47.877Z,12.63
2017-09-28T17:13:17.145Z,11.60
2017-09-28T17:15:49.761Z,11.20
2017-09-28T17:18:18.174Z,11.10
2017-09-28T17:20:48.397Z,12.10
2017-09-28T17:23:18.762Z,12.30
2017-09-28T17:25:48.251Z,13.10
2017-09-28T17:28:19.499Z,12.57
2017-09-28T17:30:49.906Z,11.77
2017-09-28T17:33:18.291Z,12.33
2017-09-28T17:35:46.725Z,13.53
2017-09-28T17:38:15.065Z,13.87
2017-09-28T17:40:45.282Z,12.83
2017-09-28T17:43:14.353Z,12.53
2017-09-28T17:45:43.746Z,12.90
2017-09-28T17:48:12.668Z,12.57
2017-09-28T17:50:41.142Z,14.10
2017-09-28T17:53:09.645Z,14.60
2017-09-28T17:55:39.843Z,13.63
2017-09-28T17:58:08.243Z,14.17
2017-09-28T18:00:37.283Z,12.97
2017-09-28T18:03:05.606Z,12.93
2017-09-28T18:05:35.854Z,13.37
2017-09-28T18:08:04.222Z,13.67
2017-09-28T18:10:33.245Z,12.67
2017-09-28T18:13:01.740Z,13.23
2017-09-28T18:15:30.133Z,13.57
2017-09-28T18:18:00.270Z,13.33
2017-09-28T18:20:28.573Z,12.73
2017-09-28T18:22:57.091Z,13.33
2017-09-28T18:25:25.603Z,13.70
2017-09-28T18:27:54.940Z,12.97
2017-09-28T18:30:23.297Z,12.87
2017-09-28T18:32:51.857Z,12.83
2017-09-28T18:35:21.456Z,12.77
2017-09-28T18:37:50.897Z,12.63
2017-09-28T18:40:20.177Z,13.93
2017-09-28T18:42:51.971Z,13.73
2017-09-28T18:45:22.208Z,12.97
2017-09-28T18:47:52.691Z,13.20
2017-09-28T18:50:21.415Z,15.77
2017-09-28T18:52:50.447Z,15.10
2017-09-28T18:55:19.670Z,13.30
2017-09-28T18:57:48.338Z,13.33
2017-09-28T19:00:16.730Z,13.93
2017-09-28T19:02:45.113Z,14.30
2017-09-28T19:05:13.570Z,14.30
2017-09-28T19:07:41.873Z,16.07
2017-09-28T19:10:10.269Z,14.47
2017-09-28T19:12:41.796Z,15.27
2017-09-28T19:15:10.087Z,14.70
2017-09-28T19:17:38.453Z,13.90
2017-09-28T19:20:07.953Z,13.50
2017-09-28T19:22:36.214Z,16.10
2017-09-28T19:25:06.669Z,16.10
2017-09-28T19:27:35.069Z,15.40
2017-09-28T19:30:04.097Z,15.67
2017-09-28T19:32:33.342Z,16.40
2017-09-28T19:35:01.758Z,17.23
2017-09-28T19:37:30.107Z,17.67
2017-09-28T19:39:59.510Z,15.67
2017-09-28T19:42:28.282Z,16.20
2017-09-28T19:44:56.661Z,17.67
2017-09-28T19:47:24.901Z,16.33
2017-09-28T19:49:53.243Z,19.00
2017-09-28T19:52:22.829Z,18.47
2017-09-28T19:54:52.134Z,17.57
2017-09-28T19:57:24.543Z,17.60
2017-09-28T19:59:52.926Z,19.47
2017-09-28T20:02:22.303Z,20.63
2017-09-28T20:04:51.578Z,19.93
2017-09-28T20:07:19.870Z,20.93
2017-09-28T20:09:48.281Z,21.47
2017-09-28T20:12:17.353Z,21.20
2017-09-28T20:14:46.542Z,20.73
2017-09-28T20:17:14.937Z,20.90
2017-09-28T20:19:43.354Z,22.80
2017-09-28T20:22:11.804Z,22.93
2017-09-28T20:24:40.070Z,22.83
2017-09-28T20:27:08.913Z,23.20
2017-09-28T20:29:37.225Z,24.70
2017-09-28T20:32:05.507Z,22.63
2017-09-28T20:34:33.779Z,23.13
2017-09-28T20:37:02.018Z,24.13
2017-09-28T20:39:31.272Z,23.27
2017-09-28T20:42:00.322Z,23.57
2017-09-28T20:44:28.579Z,23.03
2017-09-28T20:46:57.198Z,24.00
2017-09-28T20:49:26.412Z,23.97
2017-09-28T20:51:56.840Z,24.87
2017-09-28T20:54:25.836Z,22.97
2017-09-28T20:56:54.239Z,24.63
2017-09-28T20:59:23.510Z,24.97
2017-09-28T21:01:51.903Z,24.33
2017-09-28T21:04:20.946Z,24.57
2017-09-28T21:06:49.284Z,25.80
2017-09-28T21:09:20.497Z,21.90
2017-09-28T21:11:48.874Z,23.67
2017-09-28T21:14:17.132Z,25.87
2017-09-28T21:16:45.539Z,25.43
2017-09-28T21:19:14.890Z,26.90
2017-09-28T21:21:43.138Z,24.27
2017-09-28T21:24:12.154Z,25.87
2017-09-28T21:26:40.425Z,26.27
2017-09-28T21:29:08.678Z,24.27
2017-09-28T21:31:37.753Z,23.20
2017-09-28T21:34:06.417Z,24.73
2017-09-28T21:36:34.666Z,24.30
2017-09-28T21:39:02.923Z,25.60
2017-09-28T21:41:31.197Z,25.07
2017-09-28T21:44:00.214Z,24.73
2017-09-28T21:46:28.469Z,23.87
2017-09-28T21:48:56.812Z,24.20
2017-09-28T21:51:25.046Z,24.80
2017-09-28T21:53:53.314Z,25.00
2017-09-28T21:56:21.861Z,25.70
2017-09-28T21:58:50.106Z,26.17
2017-09-28T22:01:18.362Z,25.40
2017-09-28T22:03:46.638Z,24.13
2017-09-28T22:06:14.889Z,22.93
2017-09-28T22:08:43.141Z,21.57
2017-09-28T22:11:11.417Z,22.50
2017-09-28T22:13:39.670Z,26.00
2017-09-28T22:16:07.917Z,26.43
2017-09-28T22:18:36.257Z,25.97
2017-09-28T22:21:04.511Z,25.50
2017-09-28T22:23:32.755Z,25.17
2017-09-28T22:26:01.031Z,24.73
2017-09-28T22:28:29.277Z,26.07
2017-09-28T22:30:58.289Z,26.00
2017-09-28T22:33:26.563Z,23.90
2017-09-28T22:35:54.821Z,24.43
2017-09-28T22:38:23.846Z,25.73
2017-09-28T22:40:52.355Z,26.30
2017-09-28T22:43:20.618Z,26.33
2017-09-28T22:45:48.882Z,24.50
2017-09-28T22:48:17.154Z,24.10
2017-09-28T22:50:45.406Z,26.00
2017-09-28T22:53:14.426Z,23.80
2017-09-28T22:55:42.698Z,24.87
2017-09-28T22:58:11.569Z,29.13
2017-09-28T23:00:40.811Z,28.90
2017-09-28T23:03:09.598Z,24.77
2017-09-28T23:05:37.909Z,24.00
2017-09-28T23:08:06.186Z,23.83
2017-09-28T23:10:34.461Z,23.50
2017-09-28T23:13:02.718Z,22.73
2017-09-28T23:15:30.962Z,23.00
2017-09-28T23:17:59.237Z,24.23
2017-09-28T23:20:27.482Z,23.50
2017-09-28T23:22:55.734Z,23.30
2017-09-28T23:25:24.402Z,23.47
2017-09-28T23:27:52.658Z,22.53
2017-09-28T23:30:20.917Z,22.70
2017-09-28T23:32:49.182Z,21.43
2017-09-28T23:35:17.433Z,22.30
2017-09-28T23:37:45.684Z,24.00
2017-09-28T23:40:13.954Z,23.03
2017-09-28T23:42:42.210Z,25.03
2017-09-28T23:45:10.469Z,24.60
2017-09-28T23:47:39.854Z,24.27
2017-09-28T23:50:08.109Z,24.17
2017-09-28T23:52:36.361Z,24.90
2017-09-28T23:55:04.682Z,22.17
2017-09-28T23:57:32.934Z,26.03
